createdAt,value
2022-10-05T00:01:01.308Z,7.95
2022-10-05T00:04:28.378Z,7.98
2022-10-05T00:07:30.472Z,8.03
2022-10-05T00:10:33.332Z,8.08
2022-10-05T00:13:35.601Z,8.07
2022-10-05T00:16:37.822Z,8.11
2022-10-05T00:19:39.912Z,8.15
2022-10-05T00:22:42.188Z,8.16
2022-10-05T00:25:44.282Z,8.16
2022-10-05T00:28:46.948Z,8.12
2022-10-05T00:31:50.155Z,8.13
2022-10-05T00:34:52.510Z,8.17
2022-10-05T00:37:55.554Z,8.25
2022-10-05T00:41:00.626Z,8.18
2022-10-05T00:44:02.692Z,8.22
2022-10-05T00:47:18.660Z,8.27
2022-10-05T00:50:26.735Z,8.24
2022-10-05T00:53:53.914Z,8.32
2022-10-05T00:57:03.205Z,8.37
2022-10-05T01:00:13.033Z,8.42
2022-10-05T01:03:27.720Z,8.43
2022-10-05T01:06:55.052Z,8.48
2022-10-05T01:10:16.036Z,8.42
2022-10-05T01:13:29.577Z,8.52
2022-10-05T01:16:48.531Z,8.50
2022-10-05T01:20:05.957Z,8.57
2022-10-05T01:23:32.783Z,8.58
2022-10-05T01:27:29.599Z,8.53
2022-10-05T01:30:38.077Z,8.53
2022-10-05T01:33:46.752Z,8.59
2022-10-05T01:37:23.319Z,8.60
2022-10-05T01:40:39.928Z,8.63
2022-10-05T01:44:02.936Z,8.65
2022-10-05T01:47:14.160Z,8.72
2022-10-05T01:50:22.226Z,8.68
2022-10-05T01:53:35.119Z,8.69
2022-10-05T01:56:45.745Z,8.65
2022-10-05T02:00:08.470Z,8.62
2022-10-05T02:03:22.554Z,8.62
2022-10-05T02:06:27.075Z,8.62
2022-10-05T02:09:34.400Z,8.60
2022-10-05T02:12:37.943Z,8.66
2022-10-05T02:16:03.947Z,8.66
2022-10-05T02:19:22.612Z,8.62
2022-10-05T02:22:31.417Z,8.55
2022-10-05T02:25:37.827Z,8.61
2022-10-05T02:28:47.569Z,8.56
2022-10-05T02:31:58.165Z,8.48
2022-10-05T02:35:04.158Z,8.37
2022-10-05T02:38:38.450Z,8.36
2022-10-05T02:42:05.905Z,8.35
2022-10-05T02:45:20.454Z,8.40
2022-10-05T02:48:28.974Z,8.21
2022-10-05T02:51:51.882Z,8.23
2022-10-05T02:55:06.282Z,8.30
2022-10-05T02:58:23.117Z,8.26
2022-10-05T03:01:36.132Z,8.32
2022-10-05T03:05:10.297Z,8.26
2022-10-05T03:08:18.410Z,8.28
2022-10-05T03:11:40.187Z,8.36
2022-10-05T03:15:07.213Z,8.35
2022-10-05T03:18:46.884Z,8.39
2022-10-05T03:22:23.721Z,8.28
2022-10-05T03:25:34.857Z,8.26
2022-10-05T03:29:03.881Z,8.32
2022-10-05T03:32:43.897Z,8.37
2022-10-05T03:36:07.826Z,8.35
2022-10-05T03:39:57.449Z,8.40
2022-10-05T03:43:12.378Z,8.40
2022-10-05T03:46:36.402Z,8.46
2022-10-05T03:50:06.662Z,8.46
2022-10-05T03:53:19.220Z,8.46
2022-10-05T03:56:33.723Z,8.41
2022-10-05T04:00:05.493Z,8.46
2022-10-05T04:03:36.765Z,8.37
2022-10-05T04:06:46.867Z,8.38
2022-10-05T04:09:51.312Z,8.39
2022-10-05T04:13:05.273Z,8.40
2022-10-05T04:16:16.243Z,8.39
2022-10-05T04:19:34.862Z,8.38
2022-10-05T04:22:46.503Z,8.38
2022-10-05T04:25:52.792Z,8.34
2022-10-05T04:29:15.244Z,8.31
2022-10-05T04:32:30.459Z,8.34
2022-10-05T04:35:53.175Z,8.31
2022-10-05T04:39:15.696Z,8.26
2022-10-05T04:42:35.092Z,8.19
2022-10-05T04:46:09.063Z,8.14
2022-10-05T04:49:14.147Z,8.09
2022-10-05T04:52:37.784Z,8.06
2022-10-05T04:56:08.254Z,8.03
2022-10-05T04:59:45.234Z,8.02
2022-10-05T05:03:24.870Z,8.04
2022-10-05T05:06:37.426Z,8.01
2022-10-05T05:09:45.455Z,8.05
2022-10-05T05:12:57.948Z,8.07
2022-10-05T05:16:16.775Z,8.17
2022-10-05T05:19:45.035Z,8.16
2022-10-05T05:22:50.175Z,8.20
2022-10-05T05:26:06.530Z,8.27
2022-10-05T05:29:19.249Z,8.35
2022-10-05T05:32:40.118Z,8.31
2022-10-05T05:36:14.113Z,8.33
2022-10-05T05:39:29.656Z,8.30
2022-10-05T05:43:13.108Z,8.35
2022-10-05T05:47:01.669Z,8.49
2022-10-05T05:50:07.430Z,8.48
2022-10-05T05:53:36.873Z,8.58
2022-10-05T05:56:45.548Z,8.56
2022-10-05T06:00:03.783Z,8.67
2022-10-05T06:03:43.695Z,8.82
2022-10-05T06:06:51.446Z,8.92
2022-10-05T06:10:18.404Z,8.93
2022-10-05T06:13:40.730Z,9.02
2022-10-05T06:16:50.523Z,9.06
2022-10-05T06:20:01.121Z,9.11
2022-10-05T06:23:10.741Z,9.22
2022-10-05T06:26:28.262Z,9.30
2022-10-05T06:30:08.984Z,9.39
2022-10-05T06:33:51.140Z,9.57
2022-10-05T06:37:00.681Z,9.67
2022-10-05T06:40:35.106Z,9.72
2022-10-05T06:43:46.488Z,9.82
2022-10-05T06:47:07.815Z,9.91
2022-10-05T06:50:32.682Z,9.95
2022-10-05T06:53:53.394Z,10.11
2022-10-05T06:56:58.547Z,10.15
2022-10-05T07:00:15.862Z,10.24
2022-10-05T07:03:49.175Z,10.25
2022-10-05T07:07:07.624Z,10.23
2022-10-05T07:10:31.794Z,10.35
2022-10-05T07:13:57.599Z,10.38
2022-10-05T07:17:24.636Z,10.37
2022-10-05T07:20:32.406Z,10.59
2022-10-05T07:24:01.708Z,10.87
2022-10-05T07:27:04.015Z,11.14
2022-10-05T07:30:08.333Z,11.23
2022-10-05T07:33:26.835Z,11.34
2022-10-05T07:37:08.420Z,11.45
2022-10-05T07:40:19.302Z,11.46
2022-10-05T07:43:21.779Z,11.53
2022-10-05T07:46:32.507Z,11.66
2022-10-05T07:49:41.484Z,11.78
2022-10-05T07:52:50.455Z,11.86
2022-10-05T07:55:54.837Z,11.92
2022-10-05T07:59:26.542Z,12.03
2022-10-05T08:02:34.624Z,12.26
2022-10-05T08:05:41.979Z,12.27
2022-10-05T08:08:58.762Z,12.44
2022-10-05T08:12:08.032Z,12.77
2022-10-05T08:15:20.563Z,13.01
2022-10-05T08:18:58.889Z,13.13
2022-10-05T08:22:05.396Z,13.30
2022-10-05T08:25:19.566Z,13.37
2022-10-05T08:28:31.789Z,13.54
2022-10-05T08:31:36.113Z,13.77
2022-10-05T08:34:45.816Z,14.04
2022-10-05T08:37:49.629Z,14.27
2022-10-05T08:41:10.817Z,14.36
2022-10-05T08:45:02.827Z,14.39
2022-10-05T08:48:42.043Z,14.52
2022-10-05T08:51:54.166Z,14.71
2022-10-05T08:55:17.488Z,14.73
2022-10-05T08:58:37.583Z,14.68
2022-10-05T09:01:51.929Z,14.78
2022-10-05T09:05:13.526Z,14.81
2022-10-05T09:09:03.409Z,15.11
2022-10-05T09:12:11.216Z,15.20
2022-10-05T09:15:28.354Z,15.22
2022-10-05T09:19:08.142Z,15.32
2022-10-05T09:22:35.261Z,15.26
2022-10-05T09:25:40.144Z,15.26
2022-10-05T09:29:11.378Z,15.31
2022-10-05T09:32:23.723Z,15.53
2022-10-05T09:35:34.491Z,15.67
2022-10-05T09:38:55.097Z,15.83
2022-10-05T09:42:26.353Z,15.82
2022-10-05T09:45:41.463Z,15.97
2022-10-05T09:48:56.691Z,16.05
2022-10-05T09:52:08.061Z,16.02
2022-10-05T09:55:28.332Z,16.14
2022-10-05T09:58:55.240Z,16.28
2022-10-05T10:02:28.378Z,16.39
2022-10-05T10:05:55.177Z,16.52
2022-10-05T10:09:38.523Z,16.83
2022-10-05T10:13:06.196Z,16.79
2022-10-05T10:16:49.258Z,16.74
2022-10-05T10:20:00.621Z,16.87
2022-10-05T10:23:02.877Z,16.91
2022-10-05T10:26:26.554Z,17.05
2022-10-05T10:29:57.580Z,17.12
2022-10-05T10:33:30.777Z,17.29
2022-10-05T10:36:52.048Z,17.56
2022-10-05T10:40:20.280Z,17.53
2022-10-05T10:43:43.891Z,17.67
2022-10-05T10:47:17.215Z,17.61
2022-10-05T10:50:56.687Z,17.61
2022-10-05T10:54:19.145Z,17.79
2022-10-05T10:57:32.891Z,17.61
2022-10-05T11:00:51.298Z,17.69
2022-10-05T11:04:19.215Z,17.56
2022-10-05T11:07:59.103Z,17.57
2022-10-05T11:11:23.907Z,17.67
2022-10-05T11:14:34.037Z,17.75
2022-10-05T11:17:58.169Z,17.74
2022-10-05T11:21:12.633Z,17.88
2022-10-05T11:24:29.489Z,18.00
2022-10-05T11:27:43.553Z,18.00
2022-10-05T11:31:04.373Z,17.99
2022-10-05T11:34:44.028Z,18.35
2022-10-05T11:38:02.664Z,18.40
2022-10-05T11:41:37.585Z,18.52
2022-10-05T11:44:45.472Z,18.42
2022-10-05T11:47:50.425Z,18.43
2022-10-05T11:50:58.272Z,18.31
2022-10-05T11:54:24.093Z,18.32
2022-10-05T11:57:51.151Z,18.52
2022-10-05T12:00:57.434Z,18.53
2022-10-05T12:04:26.795Z,18.45
2022-10-05T12:07:42.221Z,18.28
2022-10-05T12:11:10.106Z,18.29
2022-10-05T12:14:37.968Z,18.17
2022-10-05T12:17:51.120Z,18.33
2022-10-05T12:21:11.505Z,18.19
2022-10-05T12:24:22.253Z,18.14
2022-10-05T12:27:35.324Z,17.95
2022-10-05T12:31:15.182Z,18.10
2022-10-05T12:34:42.700Z,18.28
2022-10-05T12:38:01.987Z,18.37
2022-10-05T12:41:13.273Z,18.32
2022-10-05T12:44:39.759Z,18.35
2022-10-05T12:47:51.512Z,18.34
2022-10-05T12:51:00.600Z,18.39
2022-10-05T12:54:24.600Z,18.40
2022-10-05T12:57:26.525Z,18.31
2022-10-05T13:00:33.079Z,18.40
2022-10-05T13:03:42.722Z,18.22
2022-10-05T13:07:06.578Z,18.31
2022-10-05T13:10:20.681Z,18.28
2022-10-05T13:13:34.723Z,18.23
2022-10-05T13:17:15.310Z,18.14
2022-10-05T13:20:47.273Z,18.00
2022-10-05T13:24:08.048Z,17.94
2022-10-05T13:27:22.175Z,17.92
2022-10-05T13:30:24.204Z,17.86
2022-10-05T13:33:51.071Z,17.80
2022-10-05T13:36:59.003Z,17.70
2022-10-05T13:40:01.239Z,17.44
2022-10-05T13:43:07.753Z,17.52
2022-10-05T13:46:15.240Z,17.53
2022-10-05T13:49:29.503Z,17.46
2022-10-05T13:52:38.421Z,17.44
2022-10-05T13:55:55.617Z,17.29
2022-10-05T13:59:39.637Z,17.41
2022-10-05T14:02:47.270Z,17.42
2022-10-05T14:05:58.195Z,17.41
2022-10-05T14:09:00.551Z,17.31
2022-10-05T14:12:02.812Z,17.31
2022-10-05T14:15:18.893Z,17.18
2022-10-05T14:18:28.549Z,17.26
2022-10-05T14:21:32.725Z,17.25
2022-10-05T14:24:44.307Z,17.17
2022-10-05T14:27:52.695Z,17.06
2022-10-05T14:30:59.241Z,17.09
2022-10-05T14:34:30.691Z,17.15
2022-10-05T14:37:58.093Z,17.05
2022-10-05T14:41:12.538Z,17.00
2022-10-05T14:44:15.354Z,16.97
2022-10-05T14:47:22.958Z,16.97
2022-10-05T14:50:29.473Z,17.00
2022-10-05T14:53:46.590Z,16.93
2022-10-05T14:57:38.001Z,16.93
2022-10-05T15:00:49.610Z,16.79
2022-10-05T15:04:30.397Z,16.78
2022-10-05T15:07:42.060Z,16.72
2022-10-05T15:11:03.105Z,16.76
2022-10-05T15:14:16.853Z,16.72
2022-10-05T15:17:29.794Z,16.55
2022-10-05T15:20:45.616Z,16.67
2022-10-05T15:23:54.409Z,16.62
2022-10-05T15:26:59.396Z,16.52
2022-10-05T15:30:18.177Z,16.52
2022-10-05T15:34:05.393Z,16.42
2022-10-05T15:37:27.911Z,16.49
2022-10-05T15:40:35.608Z,16.49
2022-10-05T15:43:58.675Z,16.38
2022-10-05T15:47:07.851Z,16.26
2022-10-05T15:50:32.444Z,16.27
2022-10-05T15:54:19.627Z,16.15
2022-10-05T15:57:34.212Z,15.91
2022-10-05T16:00:47.923Z,15.85
2022-10-05T16:04:11.544Z,15.83
2022-10-05T16:07:39.214Z,15.83
2022-10-05T16:10:44.229Z,15.75
2022-10-05T16:13:59.819Z,15.72
2022-10-05T16:17:24.236Z,15.62
2022-10-05T16:20:42.634Z,15.53
2022-10-05T16:24:09.307Z,15.29
2022-10-05T16:27:34.414Z,15.35
2022-10-05T16:31:03.550Z,15.25
2022-10-05T16:34:24.699Z,15.18
2022-10-05T16:37:29.832Z,15.14
2022-10-05T16:40:41.696Z,15.11
2022-10-05T16:44:18.412Z,15.12
2022-10-05T16:47:34.004Z,15.11
2022-10-05T16:50:49.576Z,15.16
2022-10-05T16:53:59.368Z,15.06
2022-10-05T16:57:21.405Z,15.08
2022-10-05T17:00:46.701Z,15.01
2022-10-05T17:04:26.360Z,14.98
2022-10-05T17:08:06.405Z,14.86
2022-10-05T17:11:31.577Z,14.89
2022-10-05T17:14:41.104Z,14.79
2022-10-05T17:18:27.345Z,14.73
2022-10-05T17:21:45.387Z,14.65
2022-10-05T17:25:08.759Z,14.55
2022-10-05T17:28:24.066Z,14.46
2022-10-05T17:31:31.332Z,14.47
2022-10-05T17:35:18.668Z,14.35
2022-10-05T17:38:30.797Z,14.35
2022-10-05T17:41:32.969Z,14.34
2022-10-05T17:44:35.629Z,14.30
2022-10-05T17:48:03.806Z,14.23
2022-10-05T17:51:46.521Z,14.20
2022-10-05T17:55:09.042Z,14.22
2022-10-05T17:58:29.771Z,14.16
2022-10-05T18:01:39.316Z,14.05
2022-10-05T18:04:50.129Z,14.04
2022-10-05T18:08:16.372Z,14.05
2022-10-05T18:11:41.035Z,14.00
2022-10-05T18:14:52.263Z,13.87
2022-10-05T18:18:19.862Z,13.84
2022-10-05T18:21:33.091Z,13.80
2022-10-05T18:25:04.070Z,13.77
2022-10-05T18:28:25.258Z,13.76
2022-10-05T18:31:30.795Z,13.75
2022-10-05T18:34:43.872Z,13.73
2022-10-05T18:37:52.616Z,13.67
2022-10-05T18:41:02.374Z,13.61
2022-10-05T18:44:12.184Z,13.64
2022-10-05T18:47:31.219Z,13.57
2022-10-05T18:50:38.356Z,13.53
2022-10-05T18:53:51.806Z,13.48
2022-10-05T18:56:54.336Z,13.42
2022-10-05T19:00:07.380Z,13.42
2022-10-05T19:03:26.214Z,13.44
2022-10-05T19:06:28.293Z,13.37
2022-10-05T19:10:01.655Z,13.37
2022-10-05T19:13:16.727Z,13.33
2022-10-05T19:16:22.820Z,13.34
2022-10-05T19:20:04.103Z,13.29
2022-10-05T19:23:32.991Z,13.28
2022-10-05T19:26:56.994Z,13.26
2022-10-05T19:30:20.332Z,13.29
2022-10-05T19:33:32.238Z,13.22
2022-10-05T19:36:52.891Z,13.18
2022-10-05T19:39:58.932Z,13.16
2022-10-05T19:43:32.204Z,13.14
2022-10-05T19:47:00.988Z,13.08
2022-10-05T19:50:23.456Z,13.10
2022-10-05T19:53:31.070Z,13.08
2022-10-05T19:56:34.575Z,13.07
2022-10-05T19:59:40.482Z,13.04
2022-10-05T20:02:42.504Z,13.08
2022-10-05T20:05:45.246Z,13.11
2022-10-05T20:08:49.714Z,13.10
2022-10-05T20:11:53.132Z,13.10
2022-10-05T20:15:24.624Z,13.10
2022-10-05T20:18:58.568Z,13.06
2022-10-05T20:22:40.895Z,13.01
2022-10-05T20:26:03.309Z,12.99
2022-10-05T20:29:09.045Z,12.94
2022-10-05T20:32:17.758Z,12.87
2022-10-05T20:35:25.220Z,12.83
2022-10-05T20:38:45.400Z,12.89
2022-10-05T20:41:47.775Z,12.84
2022-10-05T20:44:55.829Z,12.79
2022-10-05T20:47:59.169Z,12.81
2022-10-05T20:51:02.176Z,12.75
2022-10-05T20:54:05.131Z,12.71
2022-10-05T20:57:07.313Z,12.72
2022-10-05T21:00:11.642Z,12.67
2022-10-05T21:03:13.797Z,12.62
2022-10-05T21:06:18.058Z,12.69
2022-10-05T21:09:21.672Z,12.66
2022-10-05T21:12:24.174Z,12.60
2022-10-05T21:15:26.853Z,12.56
2022-10-05T21:18:29.752Z,12.53
2022-10-05T21:21:33.075Z,12.49
2022-10-05T21:24:39.459Z,12.39
2022-10-05T21:27:42.130Z,12.35
2022-10-05T21:30:44.484Z,12.35
2022-10-05T21:33:46.536Z,12.37
2022-10-05T21:36:48.831Z,12.32
2022-10-05T21:39:50.864Z,12.35
2022-10-05T21:42:53.113Z,12.39
2022-10-05T21:45:55.724Z,12.37
2022-10-05T21:48:57.995Z,12.40
2022-10-05T21:52:01.020Z,12.31
2022-10-05T21:55:04.218Z,12.21
2022-10-05T21:58:08.440Z,12.27
2022-10-05T22:01:11.018Z,12.16
2022-10-05T22:04:13.719Z,12.18
2022-10-05T22:07:20.238Z,12.15
2022-10-05T22:10:22.257Z,12.19
2022-10-05T22:13:26.162Z,12.11
2022-10-05T22:16:31.505Z,12.01
2022-10-05T22:19:33.832Z,11.99
2022-10-05T22:22:35.812Z,11.92
2022-10-05T22:25:39.228Z,11.88
2022-10-05T22:28:42.420Z,11.95
2022-10-05T22:31:46.323Z,11.95
2022-10-05T22:34:48.393Z,11.99
2022-10-05T22:37:50.702Z,12.00
2022-10-05T22:40:52.810Z,11.96
2022-10-05T22:43:55.041Z,11.81
2022-10-05T22:46:57.006Z,11.88
2022-10-05T22:50:00.200Z,11.82
2022-10-05T22:53:02.236Z,11.76
2022-10-05T22:56:06.255Z,11.76
2022-10-05T22:59:08.214Z,11.77
2022-10-05T23:02:10.892Z,11.79
2022-10-05T23:05:13.516Z,11.66
2022-10-05T23:08:17.296Z,11.70
2022-10-05T23:11:23.586Z,11.68
2022-10-05T23:14:26.001Z,11.60
2022-10-05T23:17:28.605Z,11.63
2022-10-05T23:20:30.850Z,11.56
2022-10-05T23:23:33.028Z,11.54
2022-10-05T23:26:35.519Z,11.49
2022-10-05T23:29:37.607Z,11.45
2022-10-05T23:32:44.441Z,11.40
2022-10-05T23:35:46.456Z,11.35
2022-10-05T23:38:49.231Z,11.32
2022-10-05T23:41:51.393Z,11.25
2022-10-05T23:44:53.650Z,11.16
2022-10-05T23:47:55.809Z,11.17
2022-10-05T23:50:58.683Z,11.21
2022-10-05T23:54:00.894Z,11.16
2022-10-05T23:57:03.503Z,11.13
